Weather History for Lyndonville, VT

Change the Weather History Date:

Friday, January 31, 2014

  Actual Average (K1V4) Record (K1V4)
Temperature  
Mean Temperature 26 °F 17 °F  
Max Temperature 32 °F 28 °F 56 °F (1988)
Min Temperature 19 °F 6 °F -33 °F (1934)
Degree Days  
Heating Degree Days 40 48  
Month to date heating degree days 1499  
Since 1 July heating degree days 4449  
Moisture  
Dew Point 9 °F    
Average Humidity 50    
Maximum Humidity 67    
Minimum Humidity 39    
Precipitation  
Precipitation 0.00 in 0.08 in 0.79 in (1979)
Month to date precipitation 2.51  
Year to date precipitation 2.51  
Sea Level Pressure  
Sea Level Pressure 29.97 in    
Wind  
Wind Speed 6 mph (South)    
Max Wind Speed 12 mph    
Max Gust Speed 21 mph    
Visibility 10 miles    
Events      
T = Trace of Precipitation, MM = Missing Value Source: NWS Daily Summary

Daily Weather History Graph

Daily Weather History Graph

Search for Another Location

Airport:

Trip Planner

Search our weather history database for the weather conditions in past years. The results will help you decide how hot, cold, wet, or windy it might be!

Date:

Astronomy

Jan. 31, 2014 Rise Set
Actual Time 7:07 AM EST 4:55 PM EST
Civil Twilight 6:36 AM EST 5:26 PM EST
Nautical Twilight 6:01 AM EST 6:01 PM EST
Astronomical Twilight 5:27 AM EST 6:35 PM EST
Moon 7:11 AM EST (1/31) 6:21 PM EST (1/31)
Length of Visible Light 10h 49m
Length of Day
9h 47m
New Moon, 1% of the Moon is Illuminated
Jan 31
New Moon
Feb 6
First Quarter
Feb 14
Full
Feb 22
Last Quarter
Mar 1
New

Hourly Weather History & Observations

Time (EST) Temp. Windchill Dew Point Humidity Pressure Visibility Wind Dir Wind Speed Gust Speed Precip Events Conditions
12:15 AM 20.1 °F 9.5 °F 1.2 °F 44% 29.96 in 10.0 mi SSE 9.2 mph 16.1 mph N/A   Overcast
12:35 AM 20.3 °F 9.0 °F 0.9 °F 43% 29.95 in 10.0 mi SSE 10.4 mph 18.4 mph N/A   Overcast
12:55 AM 20.1 °F 11.3 °F 0.5 °F 42% 29.94 in 10.0 mi South 6.9 mph - N/A   Mostly Cloudy
1:15 AM 20.1 °F 10.3 °F 0.9 °F 43% 29.95 in 10.0 mi South 8.1 mph - N/A   Mostly Cloudy
1:35 AM 20.1 °F 10.3 °F 1.0 °F 44% 29.93 in 10.0 mi SSE 8.1 mph - N/A   Overcast
1:55 AM 20.1 °F 11.3 °F 1.4 °F 44% 29.92 in 10.0 mi SSE 6.9 mph - N/A   Overcast
2:15 AM 20.1 °F 11.3 °F 1.2 °F 44% 29.92 in 10.0 mi SSE 6.9 mph - N/A   Overcast
2:35 AM 20.7 °F 11.9 °F 0.9 °F 42% 29.92 in 10.0 mi SSE 6.9 mph - N/A   Overcast
2:55 AM 20.7 °F 11.0 °F 1.2 °F 43% 29.92 in 10.0 mi South 8.1 mph - N/A   Overcast
3:15 AM 20.7 °F 8.8 °F 1.0 °F 43% 29.91 in 10.0 mi South 11.5 mph 16.1 mph N/A   Overcast
3:35 AM 20.7 °F 10.2 °F 1.2 °F 43% 29.90 in 10.0 mi South 9.2 mph - N/A   Overcast
3:55 AM 20.3 °F 9.0 °F 1.6 °F 44% 29.90 in 10.0 mi South 10.4 mph - N/A   Overcast
4:15 AM 20.3 °F 9.8 °F 1.4 °F 44% 29.90 in 10.0 mi South 9.2 mph - N/A   Overcast
4:35 AM 20.3 °F 11.5 °F 1.8 °F 45% 29.90 in 10.0 mi South 6.9 mph - N/A   Overcast
4:55 AM 20.3 °F 11.5 °F 1.9 °F 45% 29.90 in 10.0 mi South 6.9 mph - N/A   Overcast
5:15 AM 20.3 °F 10.6 °F 2.1 °F 45% 29.89 in 10.0 mi South 8.1 mph - N/A   Overcast
5:35 AM 19.8 °F 9.9 °F 2.1 °F 46% 29.89 in 10.0 mi South 8.1 mph - N/A   Mostly Cloudy
5:55 AM 19.9 °F 8.6 °F 2.3 °F 46% 29.89 in 10.0 mi South 10.4 mph 16.1 mph N/A   Overcast
6:15 AM 19.8 °F 13.2 °F 2.7 °F 48% 29.90 in 10.0 mi South 4.6 mph - N/A   Overcast
6:35 AM 19.6 °F 10.6 °F 3.4 °F 50% 29.90 in 10.0 mi South 6.9 mph - N/A   Overcast
6:55 AM 19.9 °F 10.1 °F 2.8 °F 48% 29.90 in 10.0 mi South 8.1 mph - N/A   Overcast
7:15 AM 19.8 °F 13.2 °F 3.2 °F 49% 29.91 in 10.0 mi South 4.6 mph - N/A   Overcast
7:35 AM 19.9 °F 13.4 °F 3.0 °F 48% 29.92 in 10.0 mi South 4.6 mph - N/A   Overcast
7:55 AM 19.9 °F 14.9 °F 3.7 °F 50% 29.92 in 10.0 mi South 3.5 mph - N/A   Overcast
8:15 AM 19.8 °F - 3.9 °F 50% 29.93 in 10.0 mi Calm Calm - N/A   Mostly Cloudy
8:35 AM 19.8 °F 13.2 °F 3.7 °F 50% 29.93 in 10.0 mi SSE 4.6 mph - N/A   Scattered Clouds
8:55 AM 20.1 °F 12.3 °F 4.6 °F 51% 29.94 in 10.0 mi South 5.8 mph - N/A   Clear
9:15 AM 20.8 °F 14.4 °F 4.6 °F 50% 29.94 in 10.0 mi SSE 4.6 mph - N/A   Scattered Clouds
9:35 AM 21.2 °F 16.4 °F 5.0 °F 50% 29.94 in 10.0 mi SSE 3.5 mph - N/A   Clear
9:55 AM 21.7 °F 17.0 °F 5.0 °F 49% 29.94 in 10.0 mi SSE 3.5 mph - N/A   Clear
10:15 AM 23.4 °F 15.2 °F 5.5 °F 47% 29.95 in 10.0 mi SSE 6.9 mph - N/A   Clear
10:35 AM 23.9 °F 15.8 °F 6.1 °F 47% 29.96 in 10.0 mi SSE 6.9 mph - N/A   Clear
10:55 AM 25.7 °F 17.1 °F 5.9 °F 43% 29.96 in 10.0 mi South 8.1 mph - N/A   Clear
11:15 AM 26.2 °F 16.4 °F 6.8 °F 44% 29.95 in 10.0 mi South 10.4 mph - N/A   Clear
11:35 AM 28.0 °F 20.0 °F 6.8 °F 41% 29.94 in 10.0 mi SSW 8.1 mph - N/A   Clear
11:55 AM 29.7 °F 22.8 °F 7.3 °F 39% 29.94 in 10.0 mi SSW 6.9 mph - N/A   Clear
12:15 PM 30.6 °F 23.8 °F 7.9 °F 39% 29.93 in 10.0 mi SSW 6.9 mph - N/A   Clear
12:35 PM 30.6 °F 25.8 °F 9.3 °F 41% 29.93 in 10.0 mi South 4.6 mph - N/A   Mostly Cloudy
12:55 PM 31.1 °F 25.4 °F 9.7 °F 41% 29.93 in 10.0 mi SSE 5.8 mph - N/A   Overcast
1:15 PM 31.1 °F 26.4 °F 10.9 °F 43% 29.94 in 10.0 mi SSW 4.6 mph - N/A   Overcast
1:35 PM 31.6 °F 28.3 °F 11.7 °F 44% 29.94 in 10.0 mi SE 3.5 mph - N/A   Overcast
1:55 PM 32.0 °F 23.0 °F 12.9 °F 45% 29.94 in 10.0 mi SSW 11.5 mph 20.7 mph N/A   Overcast
2:15 PM 32.0 °F 28.7 °F 14.0 °F 48% 29.96 in 10.0 mi West 3.5 mph - N/A   Overcast
2:35 PM 32.0 °F 24.8 °F 14.4 °F 48% 29.96 in 10.0 mi West 8.1 mph - N/A   Overcast
2:55 PM 32.0 °F 26.4 °F 14.5 °F 49% 29.96 in 10.0 mi WSW 5.8 mph - N/A   Overcast
3:15 PM 32.0 °F - 14.9 °F 49% 29.96 in 10.0 mi Calm Calm - N/A   Overcast
3:35 PM 31.8 °F 26.2 °F 14.9 °F 50% 29.97 in 10.0 mi SW 5.8 mph - N/A   Overcast
3:55 PM 31.6 °F 24.4 °F 15.1 °F 50% 29.98 in 10.0 mi SW 8.1 mph - N/A   Overcast
4:15 PM 31.6 °F 26.0 °F 15.3 °F 51% 29.99 in 10.0 mi SW 5.8 mph - N/A   Overcast
4:35 PM 31.6 °F 24.4 °F 14.7 °F 50% 29.99 in 10.0 mi WSW 8.1 mph - N/A   Overcast
4:55 PM 31.1 °F 23.7 °F 14.7 °F 51% 29.99 in 10.0 mi WSW 8.1 mph - N/A   Mostly Cloudy
5:15 PM 30.2 °F 24.3 °F 14.9 °F 53% 30.00 in 10.0 mi WSW 5.8 mph - N/A   Clear
5:35 PM 30.0 °F 24.1 °F 14.5 °F 53% 30.01 in 10.0 mi WSW 5.8 mph - N/A   Clear
5:55 PM 29.8 °F 23.9 °F 14.7 °F 53% 30.03 in 10.0 mi WSW 5.8 mph - N/A   Clear
6:15 PM 30.0 °F 24.1 °F 14.9 °F 53% 30.03 in 10.0 mi WSW 5.8 mph - N/A   Clear
6:35 PM 29.8 °F - 14.9 °F 54% 30.03 in 10.0 mi Calm Calm - N/A   Clear
6:55 PM 29.7 °F 24.7 °F 14.9 °F 54% 30.04 in 10.0 mi WSW 4.6 mph - N/A   Clear
7:15 PM 29.3 °F - 14.9 °F 55% 30.05 in 10.0 mi Calm Calm - N/A   Clear
7:35 PM 29.5 °F - 14.9 °F 55% 30.06 in 10.0 mi Calm Calm - N/A   Clear
7:55 PM 28.4 °F - 14.9 °F 57% 30.06 in 10.0 mi Calm Calm - N/A   Clear
8:15 PM 28.6 °F - 14.9 °F 57% 30.06 in 10.0 mi Calm Calm - N/A   Clear
8:35 PM 27.7 °F - 14.9 °F 59% 30.07 in 10.0 mi Calm Calm - N/A   Clear
8:55 PM 28.4 °F - 14.9 °F 57% 30.08 in 10.0 mi Calm Calm - N/A   Clear
9:15 PM 27.0 °F - 14.7 °F 60% 30.09 in 10.0 mi Calm Calm - N/A   Clear
9:35 PM 28.4 °F - 15.1 °F 57% 30.09 in 10.0 mi Calm Calm - N/A   Clear
9:55 PM 26.2 °F - 14.7 °F 62% 30.10 in 10.0 mi Calm Calm - N/A   Clear
10:15 PM 26.2 °F - 15.1 °F 63% 30.11 in 10.0 mi Calm Calm - N/A   Clear
10:35 PM 25.9 °F - 14.2 °F 61% 30.10 in 10.0 mi Calm Calm - N/A   Clear
10:55 PM 26.6 °F - 14.9 °F 61% 30.11 in 10.0 mi Calm Calm - N/A   Clear
11:15 PM 24.1 °F - 14.2 °F 66% 30.11 in 10.0 mi Calm Calm - N/A   Clear
11:35 PM 24.8 °F - 15.1 °F 67% 30.11 in 10.0 mi Calm Calm - N/A   Clear
11:55 PM 25.0 °F - 15.3 °F 67% 30.11 in 10.0 mi Calm Calm - N/A   Clear